Time;durP1;ratioP1;P1;durP2;ratioP2;P2;SDS_P1;SDS_P2;PMS_P1;PMS_P2;Temp;Humidity;BMP_temperature;BMP_pressure;BME280_temperature;BME280_humidity;BME280_pressure;Samples;Min_cycle;Max_cycle;Signal;HPM_P1;HPM_P2
2023/05/13 00:02:43;;;;;;;4.28;3.13;;;23.30;71.00;;;;;;10488899;28;20072;-23
2023/05/13 00:07:45;;;;;;;;;;;23.30;70.80;;;;;;10496492;28;20044;-23
2023/05/13 00:12:49;;;;;;;4.97;3.72;;;23.30;70.70;;;;;;10490981;28;20010;-24
2023/05/13 00:17:50;;;;;;;6.70;3.53;;;23.30;70.70;;;;;;10502736;28;20134;-23
2023/05/13 00:22:52;;;;;;;5.05;2.72;;;23.20;70.90;;;;;;10491172;28;20464;-25
2023/05/13 00:27:55;;;;;;;4.55;2.97;;;23.20;71.10;;;;;;10499201;28;20076;-22
2023/05/13 00:32:57;;;;;;;4.55;2.90;;;23.20;70.60;;;;;;10495638;28;20052;-23
2023/05/13 00:37:59;;;;;;;;;;;23.20;70.70;;;;;;10502057;28;20044;-24
2023/05/13 00:43:02;;;;;;;4.30;3.20;;;23.20;70.90;;;;;;10509654;28;19951;-24
2023/05/13 00:48:06;;;;;;;8.02;3.13;;;23.10;70.80;;;;;;10503927;28;20548;-24
2023/05/13 00:53:08;;;;;;;4.57;2.63;;;23.10;70.80;;;;;;10500224;28;20067;-24
2023/05/13 00:58:12;;;;;;;7.13;3.15;;;23.10;70.90;;;;;;10504623;28;20072;-24
2023/05/13 01:03:21;;;;;;;4.07;2.80;;;23.10;70.80;;;;;;10501215;28;20619;-24
2023/05/13 01:08:29;;;;;;;6.30;3.20;;;23.00;70.80;;;;;;10490723;28;20049;-24
2023/05/13 01:13:42;;;;;;;5.20;2.97;;;23.10;70.80;;;;;;10487676;28;20466;-24
2023/05/13 01:18:47;;;;;;;3.92;2.70;;;23.00;70.70;;;;;;10505405;28;20044;-24
2023/05/13 01:23:50;;;;;;;4.90;2.80;;;23.00;70.70;;;;;;10493122;28;20075;-24
2023/05/13 01:28:52;;;;;;;5.03;3.08;;;23.00;70.80;;;;;;10501548;28;20068;-23
2023/05/13 01:33:54;;;;;;;;;;;23.00;70.80;;;;;;10490519;28;20074;-23
2023/05/13 01:38:58;;;;;;;5.60;3.70;;;22.90;70.70;;;;;;10483178;28;19920;-24
2023/05/13 01:44:00;;;;;;;4.30;2.63;;;22.90;70.80;;;;;;10494484;28;20079;-22
2023/05/13 01:49:02;;;;;;;;;;;22.90;70.70;;;;;;10482210;28;20041;-25
2023/05/13 01:54:05;;;;;;;3.23;2.40;;;22.80;70.90;;;;;;10513026;28;20007;-24
2023/05/13 01:59:08;;;;;;;3.95;2.50;;;22.80;71.00;;;;;;10482692;28;20056;-24
2023/05/13 02:04:10;;;;;;;3.83;2.70;;;22.70;70.80;;;;;;10497182;28;20052;-23
2023/05/13 02:09:13;;;;;;;5.07;2.78;;;22.80;71.00;;;;;;10500912;28;20044;-23
2023/05/13 02:14:15;;;;;;;4.88;2.78;;;22.70;70.90;;;;;;10489063;28;20068;-24
2023/05/13 02:19:18;;;;;;;4.65;2.25;;;22.70;70.90;;;;;;10506619;28;20085;-24
2023/05/13 02:24:21;;;;;;;4.03;2.90;;;22.70;71.00;;;;;;10502387;28;20056;-24
2023/05/13 02:29:23;;;;;;;3.42;2.50;;;22.50;71.40;;;;;;10508188;28;20044;-24
2023/05/13 02:34:25;;;;;;;4.72;2.92;;;22.60;71.20;;;;;;10492885;28;20098;-25
2023/05/13 02:39:28;;;;;;;2.85;2.53;;;22.50;71.20;;;;;;10488765;28;20076;-24
2023/05/13 02:44:30;;;;;;;8.95;2.70;;;22.50;71.30;;;;;;10484453;28;20041;-24
2023/05/13 02:49:32;;;;;;;5.10;2.53;;;22.50;71.10;;;;;;10499629;28;20044;-24
2023/05/13 02:54:35;;;;;;;3.88;2.72;;;22.50;71.20;;;;;;10505558;28;20075;-24
2023/05/13 03:15:27;;;;;;;5.40;2.55;;;22.30;70.90;;;;;;10490020;27;2020664;-25
2023/05/13 03:20:29;;;;;;;4.35;2.75;;;22.20;72.20;;;;;;10553119;28;20080;-23
2023/05/13 03:25:31;;;;;;;5.65;3.00;;;22.20;72.10;;;;;;10552039;28;20485;-23
2023/05/13 03:30:34;;;;;;;5.13;2.90;;;22.10;72.10;;;;;;10557081;28;20036;-24
2023/05/13 03:35:37;;;;;;;4.43;2.50;;;22.00;72.90;;;;;;10555341;28;20889;-22
2023/05/13 03:40:39;;;;;;;6.05;2.63;;;22.00;73.20;;;;;;10553543;28;20047;-23
2023/05/13 03:45:46;;;;;;;3.45;2.80;;;22.10;72.30;;;;;;10547602;28;20104;-23
2023/05/13 03:50:48;;;;;;;3.88;2.70;;;22.00;72.40;;;;;;10553287;28;20040;-24
2023/05/13 03:55:50;;;;;;;5.53;2.95;;;22.00;71.70;;;;;;10565181;28;20048;-23
2023/05/13 04:00:53;;;;;;;7.03;3.33;;;22.00;72.20;;;;;;10558774;28;20505;-23
2023/05/13 04:05:55;;;;;;;5.40;3.00;;;21.90;72.20;;;;;;10553271;28;20090;-23
2023/05/13 04:10:57;;;;;;;8.05;3.47;;;22.00;72.20;;;;;;10557977;28;20083;-23
2023/05/13 04:16:00;;;;;;;4.35;2.97;;;21.90;72.60;;;;;;10561787;28;20070;-23
2023/05/13 04:21:06;;;;;;;6.32;3.20;;;21.90;72.50;;;;;;10552992;28;20101;-23
2023/05/13 04:26:08;;;;;;;4.53;2.72;;;21.90;72.00;;;;;;10531358;28;20079;-23
2023/05/13 04:31:11;;;;;;;7.43;3.10;;;21.80;72.30;;;;;;10525347;28;20436;-23
2023/05/13 04:36:13;;;;;;;5.63;3.13;;;21.90;71.90;;;;;;10525075;28;20152;-22
2023/05/13 04:41:15;;;;;;;5.57;2.97;;;21.80;72.50;;;;;;10533774;28;20515;-23
2023/05/13 04:46:18;;;;;;;6.90;2.97;;;21.70;72.80;;;;;;10541714;28;20105;-23
2023/05/13 04:51:20;;;;;;;7.18;3.10;;;21.80;71.80;;;;;;10541066;28;20068;-22
2023/05/13 04:56:22;;;;;;;8.32;3.80;;;21.90;71.50;;;;;;10538811;28;20131;-23
2023/05/13 05:01:25;;;;;;;6.05;3.55;;;21.80;71.40;;;;;;10530257;28;20040;-23
2023/05/13 05:06:27;;;;;;;6.18;3.20;;;21.80;71.20;;;;;;10515220;28;20090;-24
2023/05/13 05:11:29;;;;;;;5.32;3.20;;;21.80;70.70;;;;;;10525542;28;20455;-24
2023/05/13 05:16:32;;;;;;;6.20;3.35;;;21.80;71.70;;;;;;10528779;28;20129;-24
2023/05/13 05:21:34;;;;;;;9.80;3.47;;;21.70;72.20;;;;;;10536058;28;20121;-24
2023/05/13 05:26:35;;;;;;;15.07;6.20;;;21.70;71.60;;;;;;10502472;28;20135;-22
2023/05/13 05:31:38;;;;;;;13.13;4.03;;;21.60;70.80;;;;;;10519135;28;20079;-22
2023/05/13 05:36:40;;;;;;;6.70;3.35;;;21.70;71.50;;;;;;10518763;28;20052;-24
2023/05/13 05:41:42;;;;;;;4.10;2.75;;;21.70;71.60;;;;;;10518362;28;20105;-24
2023/05/13 05:46:45;;;;;;;5.28;3.05;;;21.50;73.00;;;;;;10529491;28;20555;-24
2023/05/13 05:51:47;;;;;;;9.30;3.78;;;21.80;72.20;;;;;;10524250;28;20043;-23
2023/05/13 05:56:49;;;;;;;6.93;3.15;;;21.80;72.20;;;;;;10522364;28;20450;-23
2023/05/13 06:01:52;;;;;;;7.18;3.03;;;21.80;71.80;;;;;;10534366;28;20401;-23
2023/05/13 06:06:54;;;;;;;5.78;2.92;;;21.80;72.30;;;;;;10528610;28;20079;-23
2023/05/13 06:11:56;;;;;;;12.43;3.50;;;21.70;72.10;;;;;;10522346;28;20150;-24
2023/05/13 06:16:59;;;;;;;10.15;3.72;;;21.60;74.00;;;;;;10526163;28;20079;-23
2023/05/13 06:22:01;;;;;;;7.13;3.33;;;21.50;74.00;;;;;;10514274;28;20052;-23
2023/05/13 06:27:03;;;;;;;8.70;4.30;;;21.60;73.40;;;;;;10530138;28;20052;-24
2023/05/13 06:32:08;;;;;;;6.47;3.20;;;21.30;74.50;;;;;;10520103;28;20079;-24
2023/05/13 06:37:09;;;;;;;6.13;3.22;;;21.50;71.90;;;;;;10520848;28;20056;-24
2023/05/13 06:42:11;;;;;;;9.45;4.68;;;21.70;73.50;;;;;;10524913;28;20050;-24
2023/05/13 06:47:15;;;;;;;7.05;3.22;;;21.70;72.30;;;;;;10528606;28;20101;-24
2023/05/13 06:52:17;;;;;;;7.55;3.33;;;21.90;72.70;;;;;;10526672;28;20062;-24
2023/05/13 06:57:18;;;;;;;8.57;3.88;;;21.70;73.30;;;;;;10538074;28;20529;-24
2023/05/13 07:02:22;;;;;;;7.20;3.67;;;21.60;73.60;;;;;;10519619;28;20142;-24
2023/05/13 07:07:23;;;;;;;10.70;4.10;;;21.80;72.80;;;;;;10517076;28;20068;-29
2023/05/13 07:12:25;;;;;;;9.07;3.80;;;21.90;72.80;;;;;;10526862;28;20060;-23
2023/05/13 07:17:30;;;;;;;;;;;21.80;73.10;;;;;;10525689;28;20040;-24
2023/05/13 07:22:31;;;;;;;15.13;5.25;;;21.60;74.70;;;;;;10525677;28;19920;-24
2023/05/13 07:27:33;;;;;;;14.48;4.25;;;21.70;71.80;;;;;;10515063;28;20063;-25
2023/05/13 07:32:37;;;;;;;16.20;4.70;;;21.70;73.90;;;;;;10515448;28;20089;-25
2023/05/13 07:37:38;;;;;;;11.15;3.60;;;21.40;77.00;;;;;;10507923;28;20532;-25
2023/05/13 07:42:41;;;;;;;13.68;4.65;;;21.90;75.60;;;;;;10510568;28;20127;-25
2023/05/13 07:47:44;;;;;;;;;;;21.40;78.30;;;;;;10514627;28;20063;-25
2023/05/13 07:52:47;;;;;;;10.02;4.18;;;20.70;83.60;;;;;;10514904;28;19924;-25
2023/05/13 07:57:49;;;;;;;8.80;4.05;;;21.30;79.90;;;;;;10517443;28;20044;-24
2023/05/13 08:02:52;;;;;;;21.13;6.18;;;21.70;78.60;;;;;;10526930;28;20147;-25
2023/05/13 08:07:54;;;;;;;23.80;7.95;;;21.20;77.70;;;;;;10532013;28;20068;-24
2023/05/13 08:12:56;;;;;;;26.33;6.57;;;20.40;86.00;;;;;;10524219;28;20064;-23
2023/05/13 08:17:59;;;;;;;12.77;5.53;;;20.60;83.90;;;;;;10514960;28;20067;-24
2023/05/13 08:23:01;;;;;;;15.65;5.75;;;20.80;81.20;;;;;;10531909;28;20491;-24
2023/05/13 08:28:03;;;;;;;14.60;5.28;;;20.30;90.40;;;;;;10527259;28;20047;-24
2023/05/13 08:33:07;;;;;;;10.77;5.13;;;20.70;81.90;;;;;;10527488;28;20074;-25
2023/05/13 08:38:08;;;;;;;10.38;4.32;;;21.10;94.00;;;;;;10517422;28;20397;-23
2023/05/13 08:43:12;;;;;;;13.82;5.22;;;20.70;92.00;;;;;;10533419;28;20076;-24
2023/05/13 08:48:16;;;;;;;18.77;4.68;;;20.60;88.00;;;;;;10526578;28;20055;-24
2023/05/13 08:53:18;;;;;;;7.45;3.53;;;21.10;87.50;;;;;;10522055;28;20048;-24
2023/05/13 08:58:20;;;;;;;11.63;3.88;;;21.40;87.20;;;;;;10540131;28;20043;-24
2023/05/13 09:03:27;;;;;;;14.05;4.65;;;21.70;80.50;;;;;;10525990;28;20083;-24
2023/05/13 09:08:29;;;;;;;10.30;3.72;;;21.00;84.40;;;;;;10530156;28;20093;-24
2023/05/13 09:13:30;;;;;;;;;;;21.10;81.20;;;;;;10530729;28;20404;-24
2023/05/13 09:18:34;;;;;;;11.80;3.63;;;20.90;86.30;;;;;;10546314;28;19967;-24
2023/05/13 09:23:36;;;;;;;14.25;3.75;;;21.30;82.10;;;;;;10520492;28;20666;-25
2023/05/13 09:28:38;;;;;;;22.65;6.72;;;21.90;92.30;;;;;;10538647;28;20044;-24
2023/05/13 09:33:52;;;;;;;19.08;5.93;;;19.20;91.00;;;;;;10536459;28;20098;-23
2023/05/13 09:38:55;;;;;;;11.95;6.18;;;19.70;95.30;;;;;;10521400;28;20071;-23
2023/05/13 09:43:58;;;;;;;6.55;3.45;;;20.90;83.90;;;;;;10518142;28;20076;-23
2023/05/13 09:49:01;;;;;;;8.80;4.00;;;21.60;82.10;;;;;;10537899;28;20131;-23
2023/05/13 09:54:03;;;;;;;12.35;3.60;;;21.70;81.90;;;;;;10528642;28;20472;-22
2023/05/13 09:59:05;;;;;;;11.95;4.38;;;21.50;84.30;;;;;;10541373;28;20079;-22
2023/05/13 10:04:08;;;;;;;11.32;4.45;;;20.90;88.00;;;;;;10526288;28;20048;-23
2023/05/13 10:09:11;;;;;;;7.72;3.60;;;21.80;76.00;;;;;;10517414;28;20109;-23
2023/05/13 10:14:13;;;;;;;17.20;5.30;;;22.00;80.40;;;;;;10518393;28;20066;-24
2023/05/13 10:19:17;;;;;;;7.00;3.70;;;21.40;82.90;;;;;;10505358;28;20080;-24
2023/05/13 10:24:20;;;;;;;11.27;3.95;;;21.50;81.30;;;;;;10506766;28;20045;-24
2023/05/13 10:29:23;;;;;;;8.85;4.10;;;21.30;84.80;;;;;;10520811;28;20123;-24
2023/05/13 10:34:27;;;;;;;11.23;4.60;;;21.80;80.60;;;;;;10538014;28;20052;-24
2023/05/13 10:39:52;;;;;;;6.72;3.17;;;22.20;76.20;;;;;;10527846;28;20044;-24
2023/05/13 10:44:55;;;;;;;8.63;3.78;;;22.60;75.70;;;;;;10524294;28;20115;-23
2023/05/13 10:50:03;;;;;;;7.75;3.75;;;22.30;76.90;;;;;;10519170;28;20058;-24
2023/05/13 10:55:14;;;;;;;11.50;4.55;;;22.90;74.30;;;;;;10524413;28;20144;-24
2023/05/13 11:00:18;;;;;;;9.73;3.90;;;22.50;74.10;;;;;;10523375;28;20136;-23
2023/05/13 11:05:22;;;;;;;11.13;4.15;;;22.60;75.50;;;;;;10524582;28;20096;-24
2023/05/13 11:10:29;;;;;;;10.98;4.20;;;22.80;74.50;;;;;;10520225;28;20044;-22
2023/05/13 11:15:43;;;;;;;6.22;4.03;;;21.50;85.30;;;;;;10521645;28;20060;-23
2023/05/13 11:20:52;;;;;;;8.82;4.38;;;22.50;78.10;;;;;;10525459;28;20444;-24
2023/05/13 11:26:09;;;;;;;14.10;5.85;;;22.20;80.00;;;;;;10526205;28;20115;-24
2023/05/13 11:31:16;;;;;;;9.50;3.80;;;20.90;86.40;;;;;;10504927;28;20131;-24
2023/05/13 11:36:20;;;;;;;14.18;5.82;;;21.50;88.20;;;;;;10530595;28;20409;-23
2023/05/13 11:41:22;;;;;;;8.30;4.78;;;21.50;77.50;;;;;;10522269;28;20101;-23
2023/05/13 11:46:25;;;;;;;15.07;5.30;;;21.30;87.30;;;;;;10528647;28;20196;-24
2023/05/13 11:51:30;;;;;;;7.05;3.70;;;20.90;90.50;;;;;;10525333;28;20087;-24
2023/05/13 11:56:32;;;;;;;9.32;4.50;;;22.60;78.90;;;;;;10540522;28;20056;-24
2023/05/13 12:01:34;;;;;;;13.25;4.43;;;22.20;74.90;;;;;;10528179;28;20044;-24
2023/05/13 12:06:44;;;;;;;8.10;3.55;;;22.10;78.40;;;;;;10534206;28;20068;-24
2023/05/13 12:11:46;;;;;;;7.75;3.40;;;22.00;78.70;;;;;;10529548;28;20056;-24
2023/05/13 12:16:48;;;;;;;4.68;3.10;;;22.30;78.80;;;;;;10515327;28;20076;-25
2023/05/13 12:21:51;;;;;;;12.40;4.25;;;23.00;76.60;;;;;;10526648;28;21336;-25
2023/05/13 12:27:03;;;;;;;5.60;3.08;;;22.70;71.90;;;;;;10518717;28;20110;-23
2023/05/13 12:32:06;;;;;;;6.75;3.42;;;22.80;78.40;;;;;;10520317;28;20075;-23
2023/05/13 12:37:13;;;;;;;12.75;3.95;;;22.90;78.80;;;;;;10522298;28;20143;-23
2023/05/13 12:42:16;;;;;;;8.82;3.55;;;22.90;80.00;;;;;;10521579;28;20151;-23
2023/05/13 12:47:19;;;;;;;8.73;4.00;;;22.80;74.40;;;;;;10515007;28;20063;-23
2023/05/13 12:52:23;;;;;;;15.15;4.47;;;23.10;77.90;;;;;;10527590;28;20090;-24
2023/05/13 12:57:24;;;;;;;4.18;3.10;;;22.90;75.80;;;;;;10517645;28;20071;-23
2023/05/13 13:02:26;;;;;;;;;;;23.30;78.20;;;;;;10540433;28;20048;-25
2023/05/13 13:07:30;;;;;;;6.20;3.33;;;23.20;76.50;;;;;;10531663;28;20514;-24
2023/05/13 13:12:31;;;;;;;4.85;3.22;;;23.50;76.40;;;;;;10532026;28;20530;-24
2023/05/13 13:17:33;;;;;;;;;;;23.40;73.70;;;;;;10532683;28;20119;-24
2023/05/13 13:22:36;;;;;;;7.05;3.47;;;23.70;76.80;;;;;;10526070;28;20372;-24
2023/05/13 13:27:38;;;;;;;8.75;3.22;;;23.90;75.70;;;;;;10530082;28;20048;-23
2023/05/13 13:32:40;;;;;;;13.30;4.53;;;24.10;74.10;;;;;;10525925;28;20150;-23
2023/05/13 13:37:43;;;;;;;8.35;4.10;;;23.70;67.20;;;;;;10532045;28;20056;-23
2023/05/13 13:42:45;;;;;;;7.10;3.25;;;23.90;75.10;;;;;;10524758;28;20447;-23
2023/05/13 13:47:47;;;;;;;11.85;5.45;;;24.30;74.20;;;;;;10528660;28;20143;-24
2023/05/13 13:52:51;;;;;;;;;;;24.30;73.40;;;;;;10533420;28;20054;-24
2023/05/13 13:57:53;;;;;;;7.90;3.80;;;24.40;70.60;;;;;;10522978;28;19920;-23
2023/05/13 14:02:55;;;;;;;;;;;24.40;73.50;;;;;;10541342;28;20071;-23
2023/05/13 14:07:58;;;;;;;;;;;25.00;71.10;;;;;;10533344;28;19924;-24
2023/05/13 14:13:00;;;;;;;9.23;3.45;;;24.70;72.40;;;;;;10522387;28;20396;-22
2023/05/13 14:18:01;;;;;;;;;;;25.00;66.50;;;;;;10526286;28;20153;-23
2023/05/13 14:23:04;;;;;;;10.95;4.72;;;25.20;71.10;;;;;;10515408;28;20523;-23
2023/05/13 14:28:06;;;;;;;13.35;5.78;;;25.40;71.10;;;;;;10507647;28;20051;-24
2023/05/13 14:33:08;;;;;;;;;;;25.60;69.40;;;;;;10524694;28;20040;-24
2023/05/13 14:38:11;;;;;;;11.55;5.53;;;25.40;72.90;;;;;;10502201;28;19920;-24
2023/05/13 14:43:13;;;;;;;10.82;5.18;;;25.70;71.20;;;;;;10524712;28;20670;-23
2023/05/13 14:48:16;;;;;;;12.75;5.65;;;26.00;70.20;;;;;;10512857;28;20132;-23
2023/05/13 14:53:19;;;;;;;12.75;5.10;;;25.80;69.60;;;;;;10515748;28;20067;-22
2023/05/13 14:58:21;;;;;;;13.32;5.22;;;26.20;71.70;;;;;;10515805;28;20105;-24
2023/05/13 15:03:23;;;;;;;8.25;4.35;;;26.10;69.30;;;;;;10516944;28;20079;-23
2023/05/13 15:08:26;;;;;;;7.95;4.07;;;26.20;70.00;;;;;;10508495;28;20072;-24
2023/05/13 15:13:31;;;;;;;16.50;4.88;;;26.50;69.70;;;;;;10521738;28;20135;-24
2023/05/13 15:18:33;;;;;;;15.68;4.63;;;25.70;64.00;;;;;;10526529;28;20047;-24
2023/05/13 15:23:36;;;;;;;7.25;3.70;;;26.20;73.80;;;;;;10526912;28;20074;-24
2023/05/13 15:28:38;;;;;;;8.52;3.88;;;26.40;67.40;;;;;;10525237;28;20062;-25
2023/05/13 15:33:40;;;;;;;6.80;3.08;;;26.90;73.00;;;;;;10520752;28;20084;-22
2023/05/13 15:38:43;;;;;;;6.15;3.60;;;27.10;73.20;;;;;;10507415;28;20056;-24
2023/05/13 15:43:45;;;;;;;9.43;4.70;;;27.10;71.60;;;;;;10513333;28;20134;-25
2023/05/13 15:48:46;;;;;;;6.10;3.83;;;27.20;74.00;;;;;;10528104;28;20504;-23
2023/05/13 15:53:51;;;;;;;5.45;3.53;;;27.30;78.30;;;;;;10519699;28;20740;-24
2023/05/13 15:58:54;;;;;;;10.57;4.93;;;27.30;72.70;;;;;;10520735;28;20059;-23
2023/05/13 16:03:56;;;;;;;5.40;3.65;;;27.20;69.40;;;;;;10523291;28;20131;-23
2023/05/13 16:09:00;;;;;;;12.88;3.97;;;27.30;83.40;;;;;;10516541;28;20079;-24
2023/05/13 16:14:03;;;;;;;10.93;3.95;;;27.10;59.20;;;;;;10517417;28;20596;-23
2023/05/13 16:19:05;;;;;;;6.15;3.53;;;27.00;80.30;;;;;;10523513;28;20077;-24
2023/05/13 16:24:08;;;;;;;8.63;4.25;;;27.40;80.50;;;;;;10526574;28;20075;-24
2023/05/13 16:29:10;;;;;;;9.27;4.35;;;27.70;77.80;;;;;;10529663;28;20440;-24
2023/05/13 16:34:12;;;;;;;5.95;3.75;;;27.30;82.30;;;;;;10529911;28;20036;-25
2023/05/13 16:39:15;;;;;;;8.45;3.72;;;27.30;76.10;;;;;;10522373;28;20140;-24
2023/05/13 16:44:17;;;;;;;9.32;5.05;;;27.50;70.80;;;;;;10516275;28;20505;-24
2023/05/13 16:49:19;;;;;;;6.05;3.80;;;27.40;71.40;;;;;;10520957;28;20066;-24
2023/05/13 16:54:22;;;;;;;7.60;3.63;;;27.20;71.50;;;;;;10523775;28;20093;-25
2023/05/13 16:59:25;;;;;;;8.20;4.25;;;27.50;72.20;;;;;;10518870;28;20118;-23
2023/05/13 17:04:27;;;;;;;8.25;4.47;;;27.50;62.40;;;;;;10526596;28;20056;-25
2023/05/13 17:09:30;;;;;;;16.00;5.43;;;27.00;74.60;;;;;;10530614;28;20135;-23
2023/05/13 17:14:32;;;;;;;7.97;4.78;;;27.10;72.10;;;;;;10529323;28;20560;-24
2023/05/13 17:19:34;;;;;;;10.30;5.13;;;26.40;76.00;;;;;;10529490;28;20071;-24
2023/05/13 17:24:38;;;;;;;9.15;4.88;;;27.40;72.00;;;;;;10536472;28;20068;-24
2023/05/13 17:29:40;;;;;;;16.30;6.75;;;27.40;72.10;;;;;;10522020;28;20548;-24
2023/05/13 17:34:42;;;;;;;16.00;6.95;;;27.30;68.80;;;;;;10530209;28;20087;-22
2023/05/13 17:39:45;;;;;;;15.88;7.15;;;27.20;74.00;;;;;;10517742;28;20072;-24
2023/05/13 17:44:47;;;;;;;17.67;7.07;;;27.30;80.00;;;;;;10526751;28;20135;-23
2023/05/13 17:49:49;;;;;;;14.07;7.20;;;26.90;68.70;;;;;;10516166;28;20154;-24
2023/05/13 17:54:52;;;;;;;15.13;6.95;;;27.40;68.40;;;;;;10520532;28;20457;-23
2023/05/13 17:59:54;;;;;;;14.88;6.53;;;27.40;73.20;;;;;;10528773;28;20050;-24
2023/05/13 18:04:55;;;;;;;19.42;6.32;;;27.80;71.00;;;;;;10526422;28;20068;-25
2023/05/13 18:09:59;;;;;;;14.60;6.05;;;27.50;73.20;;;;;;10534889;28;20044;-24
2023/05/13 18:15:01;;;;;;;14.73;5.88;;;27.30;69.10;;;;;;10536587;28;20084;-23
2023/05/13 18:20:03;;;;;;;8.18;5.15;;;27.10;76.10;;;;;;10524139;28;20878;-24
2023/05/13 18:25:07;;;;;;;12.20;4.90;;;27.10;69.50;;;;;;10531809;28;20135;-25
2023/05/13 18:30:10;;;;;;;11.20;4.93;;;27.40;67.50;;;;;;10531276;28;20141;-24
2023/05/13 18:35:14;;;;;;;10.20;4.82;;;27.60;70.20;;;;;;10527496;28;20052;-23
2023/05/13 18:40:17;;;;;;;11.32;4.68;;;27.30;67.40;;;;;;10519317;28;20132;-25
2023/05/13 18:45:19;;;;;;;10.75;4.65;;;27.30;66.30;;;;;;10522758;28;20074;-23
2023/05/13 18:50:21;;;;;;;6.00;3.78;;;27.20;66.40;;;;;;10526590;28;20059;-24
2023/05/13 18:55:25;;;;;;;9.32;3.53;;;27.40;65.10;;;;;;10537688;28;20051;-23
2023/05/13 19:00:27;;;;;;;9.02;4.30;;;27.20;65.50;;;;;;10526417;28;20052;-24
2023/05/13 19:05:29;;;;;;;7.80;3.75;;;27.30;64.70;;;;;;10510475;28;20862;-23
2023/05/13 19:10:32;;;;;;;6.18;3.90;;;27.30;64.20;;;;;;10505621;28;20732;-23
2023/05/13 19:15:34;;;;;;;10.05;3.75;;;27.30;63.90;;;;;;10504261;28;20153;-23
2023/05/13 19:20:36;;;;;;;6.40;3.33;;;27.20;63.90;;;;;;10515622;28;20044;-24
2023/05/13 19:25:41;;;;;;;7.13;3.53;;;27.20;64.00;;;;;;10519478;28;20134;-24
2023/05/13 19:30:43;;;;;;;6.50;3.72;;;27.10;63.90;;;;;;10517909;28;20054;-22
2023/05/13 19:35:45;;;;;;;6.70;3.55;;;26.90;63.90;;;;;;10524845;28;20483;-24
2023/05/13 19:40:48;;;;;;;5.95;3.42;;;26.80;63.80;;;;;;10526349;28;20102;-24
2023/05/13 19:45:50;;;;;;;5.82;3.78;;;26.60;65.30;;;;;;10518502;28;20138;-24
2023/05/13 19:50:52;;;;;;;6.47;3.97;;;26.60;65.70;;;;;;10511335;28;20060;-23
2023/05/13 19:55:55;;;;;;;6.30;3.50;;;26.70;66.10;;;;;;10523651;28;20087;-24
2023/05/13 20:00:57;;;;;;;9.52;5.07;;;26.50;66.50;;;;;;10534773;28;20052;-24
2023/05/13 20:06:00;;;;;;;8.75;3.83;;;26.30;64.40;;;;;;10526256;28;20089;-23
2023/05/13 20:11:03;;;;;;;6.18;3.63;;;26.30;66.50;;;;;;10518331;28;20062;-23
2023/05/13 20:16:06;;;;;;;5.47;3.97;;;26.40;65.60;;;;;;10526885;28;20489;-24
2023/05/13 20:21:08;;;;;;;13.02;4.18;;;26.40;66.10;;;;;;10521291;28;20048;-24
2023/05/13 20:26:11;;;;;;;4.85;3.55;;;26.20;66.00;;;;;;10523009;28;20068;-24
2023/05/13 20:31:14;;;;;;;8.25;3.60;;;26.10;65.90;;;;;;10525273;28;20044;-24
2023/05/13 20:36:16;;;;;;;7.60;4.55;;;26.10;65.10;;;;;;10532801;28;20051;-25
2023/05/13 20:41:20;;;;;;;5.53;4.18;;;26.10;65.10;;;;;;10522414;28;20408;-23
2023/05/13 20:46:22;;;;;;;5.28;3.83;;;25.90;65.10;;;;;;10525108;28;20131;-24
2023/05/13 20:51:24;;;;;;;9.55;4.53;;;25.60;65.50;;;;;;10535980;28;20479;-24
2023/05/13 20:56:27;;;;;;;16.42;5.68;;;25.40;66.40;;;;;;10522360;28;20085;-24
2023/05/13 21:01:29;;;;;;;5.85;4.20;;;25.50;65.80;;;;;;10526816;28;20139;-21
2023/05/13 21:06:32;;;;;;;8.77;4.80;;;25.20;66.60;;;;;;10534306;28;20143;-23
2023/05/13 21:11:35;;;;;;;8.60;3.90;;;25.20;66.30;;;;;;10521351;28;20064;-23
2023/05/13 21:16:37;;;;;;;10.00;4.72;;;25.10;67.10;;;;;;10533978;28;20056;-23
2023/05/13 21:21:39;;;;;;;8.10;4.20;;;25.10;65.50;;;;;;10523970;28;20445;-24
2023/05/13 21:26:42;;;;;;;7.68;4.10;;;25.30;65.60;;;;;;10536546;28;20480;-24
2023/05/13 21:31:44;;;;;;;8.63;4.28;;;25.30;65.40;;;;;;10532970;28;20052;-25
2023/05/13 21:36:46;;;;;;;7.38;4.10;;;25.30;65.00;;;;;;10525431;28;20510;-25
2023/05/13 21:41:49;;;;;;;;;;;25.30;65.00;;;;;;10524560;28;20072;-25
2023/05/13 21:46:51;;;;;;;10.93;4.30;;;25.10;65.40;;;;;;10505307;28;20021;-25
2023/05/13 21:51:52;;;;;;;5.65;4.10;;;25.00;65.50;;;;;;10511390;28;20555;-24
2023/05/13 21:56:56;;;;;;;7.47;4.10;;;24.70;67.40;;;;;;10545657;28;20086;-24
2023/05/13 22:01:57;;;;;;;8.70;4.32;;;24.80;65.10;;;;;;10530930;28;20508;-24
2023/05/13 22:07:00;;;;;;;;;;;24.90;65.50;;;;;;10528969;28;20072;-29
2023/05/13 22:12:04;;;;;;;7.10;4.10;;;24.70;66.00;;;;;;10513192;28;19967;-24
2023/05/13 22:17:06;;;;;;;7.35;3.58;;;24.60;65.10;;;;;;10521600;28;20226;-25
2023/05/13 22:22:07;;;;;;;7.00;3.65;;;24.70;65.80;;;;;;10514772;28;20087;-24
2023/05/13 22:27:10;;;;;;;;;;;24.80;65.50;;;;;;10524091;28;20493;-25
2023/05/13 22:32:12;;;;;;;4.70;3.50;;;24.50;66.70;;;;;;10518741;28;20038;-25
2023/05/13 22:37:14;;;;;;;;;;;24.50;66.40;;;;;;10522487;28;20686;-24
2023/05/13 22:42:17;;;;;;;10.13;4.00;;;24.50;66.40;;;;;;10522829;28;20014;-24
2023/05/13 22:47:19;;;;;;;8.35;4.13;;;24.40;66.40;;;;;;10515704;28;20044;-24
2023/05/13 22:52:21;;;;;;;;;;;24.40;66.50;;;;;;10527892;28;20090;-25
2023/05/13 22:57:24;;;;;;;8.85;3.72;;;24.40;66.20;;;;;;10536167;28;19946;-23
2023/05/13 23:02:26;;;;;;;7.30;3.72;;;24.50;66.00;;;;;;10525075;28;20411;-25
2023/05/13 23:07:27;;;;;;;;;;;24.40;66.20;;;;;;10521625;28;20043;-24
2023/05/13 23:12:32;;;;;;;5.80;3.70;;;24.30;66.00;;;;;;10523145;28;19967;-24
2023/05/13 23:17:34;;;;;;;9.48;3.53;;;24.30;66.00;;;;;;10515349;28;20080;-24
2023/05/13 23:22:35;;;;;;;;;;;24.20;66.00;;;;;;10516892;28;20047;-23
2023/05/13 23:27:38;;;;;;;7.20;3.25;;;24.10;66.40;;;;;;10523151;28;20338;-24
2023/05/13 23:32:40;;;;;;;5.72;3.33;;;24.10;66.00;;;;;;10519805;28;20496;-24
2023/05/13 23:37:42;;;;;;;;;;;24.10;66.70;;;;;;10533483;28;20438;-25
2023/05/13 23:42:45;;;;;;;4.57;3.33;;;23.90;66.60;;;;;;10539950;28;20611;-24
2023/05/13 23:47:47;;;;;;;5.75;3.42;;;23.90;66.90;;;;;;10531218;28;20047;-25
2023/05/13 23:52:50;;;;;;;;;;;24.00;66.60;;;;;;10532799;28;20067;-22
2023/05/13 23:57:53;;;;;;;8.45;3.47;;;23.80;66.80;;;;;;10530789;28;19993;-24
